sensor_id;sensor_type;location;lat;lon;timestamp;P1;durP1;ratioP1;P2;durP2;ratioP2
53714;SDS011;39608;55.630;37.864;2023-03-26T00:00:22;57.72;;;39.78;;
53714;SDS011;39608;55.630;37.864;2023-03-26T00:05:25;157.65;;;64.45;;
53714;SDS011;39608;55.630;37.864;2023-03-26T00:10:29;80.68;;;53.35;;
53714;SDS011;39608;55.630;37.864;2023-03-26T00:15:31;83.70;;;50.25;;
53714;SDS011;39608;55.630;37.864;2023-03-26T00:20:34;115.72;;;55.72;;
53714;SDS011;39608;55.630;37.864;2023-03-26T00:25:38;87.70;;;50.67;;
53714;SDS011;39608;55.630;37.864;2023-03-26T00:30:42;241.35;;;86.13;;
53714;SDS011;39608;55.630;37.864;2023-03-26T00:35:44;100.32;;;59.90;;
53714;SDS011;39608;55.630;37.864;2023-03-26T00:40:52;87.70;;;53.22;;
53714;SDS011;39608;55.630;37.864;2023-03-26T00:45:57;54.35;;;36.88;;
53714;SDS011;39608;55.630;37.864;2023-03-26T00:51:01;53.63;;;37.38;;
53714;SDS011;39608;55.630;37.864;2023-03-26T00:56:05;42.78;;;26.08;;
53714;SDS011;39608;55.630;37.864;2023-03-26T01:01:09;36.80;;;24.98;;
53714;SDS011;39608;55.630;37.864;2023-03-26T01:06:16;35.58;;;22.15;;
53714;SDS011;39608;55.630;37.864;2023-03-26T01:11:28;32.83;;;20.67;;
53714;SDS011;39608;55.630;37.864;2023-03-26T01:16:33;32.25;;;21.17;;
53714;SDS011;39608;55.630;37.864;2023-03-26T01:21:37;29.05;;;19.75;;
53714;SDS011;39608;55.630;37.864;2023-03-26T01:26:47;26.85;;;18.70;;
53714;SDS011;39608;55.630;37.864;2023-03-26T01:32:16;26.48;;;17.63;;
53714;SDS011;39608;55.630;37.864;2023-03-26T01:37:25;26.20;;;17.83;;
53714;SDS011;39608;55.630;37.864;2023-03-26T01:42:36;24.70;;;18.00;;
53714;SDS011;39608;55.630;37.864;2023-03-26T01:47:44;27.38;;;19.83;;
53714;SDS011;39608;55.630;37.864;2023-03-26T01:52:46;39.45;;;22.75;;
53714;SDS011;39608;55.630;37.864;2023-03-26T01:57:53;32.20;;;23.00;;
53714;SDS011;39608;55.630;37.864;2023-03-26T02:03:04;40.40;;;22.08;;
53714;SDS011;39608;55.630;37.864;2023-03-26T02:08:19;42.90;;;20.45;;
53714;SDS011;39608;55.630;37.864;2023-03-26T02:13:26;30.08;;;21.02;;
53714;SDS011;39608;55.630;37.864;2023-03-26T02:18:28;33.45;;;20.23;;
53714;SDS011;39608;55.630;37.864;2023-03-26T02:23:35;28.48;;;20.83;;
53714;SDS011;39608;55.630;37.864;2023-03-26T02:28:40;27.98;;;20.75;;
53714;SDS011;39608;55.630;37.864;2023-03-26T02:33:42;26.52;;;21.40;;
53714;SDS011;39608;55.630;37.864;2023-03-26T02:38:46;25.00;;;18.83;;
53714;SDS011;39608;55.630;37.864;2023-03-26T02:43:50;87.35;;;19.63;;
53714;SDS011;39608;55.630;37.864;2023-03-26T02:48:52;24.05;;;18.52;;
53714;SDS011;39608;55.630;37.864;2023-03-26T02:53:54;25.98;;;18.75;;
53714;SDS011;39608;55.630;37.864;2023-03-26T02:58:57;22.80;;;17.73;;
53714;SDS011;39608;55.630;37.864;2023-03-26T03:04:00;22.88;;;17.17;;
53714;SDS011;39608;55.630;37.864;2023-03-26T03:09:03;22.10;;;16.73;;
53714;SDS011;39608;55.630;37.864;2023-03-26T03:14:06;19.52;;;16.33;;
53714;SDS011;39608;55.630;37.864;2023-03-26T03:19:08;20.10;;;16.30;;
53714;SDS011;39608;55.630;37.864;2023-03-26T03:24:11;26.98;;;17.58;;
53714;SDS011;39608;55.630;37.864;2023-03-26T03:29:14;44.05;;;17.02;;
53714;SDS011;39608;55.630;37.864;2023-03-26T03:34:16;49.15;;;16.30;;
53714;SDS011;39608;55.630;37.864;2023-03-26T03:39:18;62.88;;;16.27;;
53714;SDS011;39608;55.630;37.864;2023-03-26T03:44:22;106.85;;;17.73;;
53714;SDS011;39608;55.630;37.864;2023-03-26T03:49:24;200.25;;;17.95;;
53714;SDS011;39608;55.630;37.864;2023-03-26T03:54:26;209.25;;;19.23;;
53714;SDS011;39608;55.630;37.864;2023-03-26T03:59:30;193.10;;;17.65;;
53714;SDS011;39608;55.630;37.864;2023-03-26T04:04:31;213.52;;;17.33;;
53714;SDS011;39608;55.630;37.864;2023-03-26T04:09:33;182.50;;;19.13;;
53714;SDS011;39608;55.630;37.864;2023-03-26T04:14:37;193.90;;;18.45;;
53714;SDS011;39608;55.630;37.864;2023-03-26T04:19:39;139.40;;;15.20;;
53714;SDS011;39608;55.630;37.864;2023-03-26T04:24:43;131.00;;;17.25;;
53714;SDS011;39608;55.630;37.864;2023-03-26T04:29:47;141.98;;;15.27;;
53714;SDS011;39608;55.630;37.864;2023-03-26T04:34:49;71.07;;;19.73;;
53714;SDS011;39608;55.630;37.864;2023-03-26T04:39:52;117.43;;;17.42;;
53714;SDS011;39608;55.630;37.864;2023-03-26T04:44:56;185.77;;;17.70;;
53714;SDS011;39608;55.630;37.864;2023-03-26T04:49:58;152.82;;;15.68;;
53714;SDS011;39608;55.630;37.864;2023-03-26T04:55:00;198.13;;;17.67;;
53714;SDS011;39608;55.630;37.864;2023-03-26T05:00:05;87.38;;;15.25;;
53714;SDS011;39608;55.630;37.864;2023-03-26T05:05:14;155.50;;;16.75;;
53714;SDS011;39608;55.630;37.864;2023-03-26T05:10:16;105.63;;;15.35;;
53714;SDS011;39608;55.630;37.864;2023-03-26T05:15:21;42.80;;;13.10;;
53714;SDS011;39608;55.630;37.864;2023-03-26T05:20:23;119.85;;;16.42;;
53714;SDS011;39608;55.630;37.864;2023-03-26T05:25:27;31.27;;;13.95;;
53714;SDS011;39608;55.630;37.864;2023-03-26T05:30:30;37.05;;;12.75;;
53714;SDS011;39608;55.630;37.864;2023-03-26T05:35:32;23.95;;;13.32;;
53714;SDS011;39608;55.630;37.864;2023-03-26T05:40:34;18.60;;;12.45;;
53714;SDS011;39608;55.630;37.864;2023-03-26T05:45:38;18.20;;;12.23;;
53714;SDS011;39608;55.630;37.864;2023-03-26T05:50:40;16.65;;;10.45;;
53714;SDS011;39608;55.630;37.864;2023-03-26T05:55:42;17.98;;;10.52;;
53714;SDS011;39608;55.630;37.864;2023-03-26T06:00:47;13.88;;;9.30;;
53714;SDS011;39608;55.630;37.864;2023-03-26T06:05:49;14.98;;;10.10;;
53714;SDS011;39608;55.630;37.864;2023-03-26T06:10:56;13.15;;;9.45;;
53714;SDS011;39608;55.630;37.864;2023-03-26T06:16:01;14.90;;;8.85;;
53714;SDS011;39608;55.630;37.864;2023-03-26T06:21:03;16.80;;;9.73;;
53714;SDS011;39608;55.630;37.864;2023-03-26T06:26:06;14.13;;;8.32;;
53714;SDS011;39608;55.630;37.864;2023-03-26T06:31:10;10.65;;;6.88;;
53714;SDS011;39608;55.630;37.864;2023-03-26T06:36:12;10.88;;;6.95;;
53714;SDS011;39608;55.630;37.864;2023-03-26T06:41:14;11.55;;;6.35;;
53714;SDS011;39608;55.630;37.864;2023-03-26T06:46:17;9.48;;;5.40;;
53714;SDS011;39608;55.630;37.864;2023-03-26T06:51:20;8.82;;;5.07;;
53714;SDS011;39608;55.630;37.864;2023-03-26T06:56:22;6.88;;;4.18;;
53714;SDS011;39608;55.630;37.864;2023-03-26T07:01:27;5.32;;;4.20;;
53714;SDS011;39608;55.630;37.864;2023-03-26T07:06:29;6.43;;;4.40;;
53714;SDS011;39608;55.630;37.864;2023-03-26T07:11:32;6.10;;;4.20;;
53714;SDS011;39608;55.630;37.864;2023-03-26T07:16:35;4.88;;;4.10;;
53714;SDS011;39608;55.630;37.864;2023-03-26T07:21:37;5.20;;;3.50;;
53714;SDS011;39608;55.630;37.864;2023-03-26T07:26:42;3.20;;;2.90;;
53714;SDS011;39608;55.630;37.864;2023-03-26T07:31:57;4.72;;;2.97;;
53714;SDS011;39608;55.630;37.864;2023-03-26T07:37:07;3.08;;;2.63;;
53714;SDS011;39608;55.630;37.864;2023-03-26T07:42:22;3.70;;;2.90;;
53714;SDS011;39608;55.630;37.864;2023-03-26T07:47:36;3.28;;;2.50;;
53714;SDS011;39608;55.630;37.864;2023-03-26T07:52:38;4.35;;;3.10;;
53714;SDS011;39608;55.630;37.864;2023-03-26T07:57:43;4.15;;;2.92;;
53714;SDS011;39608;55.630;37.864;2023-03-26T08:03:01;3.28;;;2.22;;
53714;SDS011;39608;55.630;37.864;2023-03-26T08:08:24;2.15;;;1.85;;
53714;SDS011;39608;55.630;37.864;2023-03-26T08:13:34;2.33;;;2.00;;
53714;SDS011;39608;55.630;37.864;2023-03-26T08:18:48;1.95;;;1.77;;
53714;SDS011;39608;55.630;37.864;2023-03-26T08:23:57;2.17;;;1.80;;
53714;SDS011;39608;55.630;37.864;2023-03-26T08:29:09;2.22;;;2.03;;
53714;SDS011;39608;55.630;37.864;2023-03-26T08:34:19;2.83;;;1.80;;
53714;SDS011;39608;55.630;37.864;2023-03-26T08:39:21;1.90;;;1.80;;
53714;SDS011;39608;55.630;37.864;2023-03-26T08:55:48;2.60;;;2.25;;
53714;SDS011;39608;55.630;37.864;2023-03-26T09:06:39;3.67;;;3.25;;
53714;SDS011;39608;55.630;37.864;2023-03-26T09:17:52;4.88;;;4.05;;
53714;SDS011;39608;55.630;37.864;2023-03-26T09:29:05;4.82;;;4.30;;
53714;SDS011;39608;55.630;37.864;2023-03-26T09:34:40;5.03;;;4.38;;
53714;SDS011;39608;55.630;37.864;2023-03-26T09:40:10;6.55;;;5.50;;
53714;SDS011;39608;55.630;37.864;2023-03-26T09:45:34;6.53;;;5.90;;
53714;SDS011;39608;55.630;37.864;2023-03-26T09:50:47;10.20;;;6.35;;
53714;SDS011;39608;55.630;37.864;2023-03-26T09:56:06;6.80;;;6.07;;
53714;SDS011;39608;55.630;37.864;2023-03-26T10:01:19;7.47;;;6.47;;
53714;SDS011;39608;55.630;37.864;2023-03-26T10:06:34;10.65;;;7.60;;
53714;SDS011;39608;55.630;37.864;2023-03-26T10:11:57;9.90;;;8.35;;
53714;SDS011;39608;55.630;37.864;2023-03-26T10:17:18;15.82;;;9.65;;
53714;SDS011;39608;55.630;37.864;2023-03-26T10:22:37;13.88;;;11.68;;
53714;SDS011;39608;55.630;37.864;2023-03-26T10:27:51;14.85;;;10.73;;
53714;SDS011;39608;55.630;37.864;2023-03-26T10:33:07;17.73;;;12.05;;
53714;SDS011;39608;55.630;37.864;2023-03-26T10:38:17;23.75;;;13.65;;
53714;SDS011;39608;55.630;37.864;2023-03-26T10:43:36;24.15;;;13.45;;
53714;SDS011;39608;55.630;37.864;2023-03-26T10:54:41;23.00;;;17.15;;
53714;SDS011;39608;55.630;37.864;2023-03-26T10:59:53;24.60;;;16.52;;
53714;SDS011;39608;55.630;37.864;2023-03-26T11:05:02;24.73;;;17.53;;
53714;SDS011;39608;55.630;37.864;2023-03-26T11:10:23;28.60;;;19.63;;
53714;SDS011;39608;55.630;37.864;2023-03-26T11:15:41;26.08;;;19.45;;
53714;SDS011;39608;55.630;37.864;2023-03-26T11:20:54;27.40;;;19.80;;
53714;SDS011;39608;55.630;37.864;2023-03-26T11:26:09;30.83;;;20.23;;
53714;SDS011;39608;55.630;37.864;2023-03-26T11:31:16;31.83;;;21.77;;
53714;SDS011;39608;55.630;37.864;2023-03-26T11:36:28;27.90;;;20.08;;
53714;SDS011;39608;55.630;37.864;2023-03-26T11:41:35;33.95;;;21.55;;
53714;SDS011;39608;55.630;37.864;2023-03-26T11:46:37;36.42;;;21.88;;
53714;SDS011;39608;55.630;37.864;2023-03-26T11:51:45;29.00;;;20.88;;
53714;SDS011;39608;55.630;37.864;2023-03-26T11:56:49;32.15;;;23.00;;
53714;SDS011;39608;55.630;37.864;2023-03-26T12:01:56;32.65;;;22.23;;
53714;SDS011;39608;55.630;37.864;2023-03-26T12:07:06;32.53;;;24.15;;
53714;SDS011;39608;55.630;37.864;2023-03-26T12:12:15;32.65;;;22.17;;
53714;SDS011;39608;55.630;37.864;2023-03-26T12:17:24;34.38;;;23.35;;
53714;SDS011;39608;55.630;37.864;2023-03-26T12:22:33;30.38;;;23.05;;
53714;SDS011;39608;55.630;37.864;2023-03-26T12:27:39;29.33;;;22.15;;
53714;SDS011;39608;55.630;37.864;2023-03-26T12:32:43;31.95;;;22.40;;
53714;SDS011;39608;55.630;37.864;2023-03-26T12:37:48;33.03;;;22.67;;
53714;SDS011;39608;55.630;37.864;2023-03-26T12:42:51;31.13;;;21.75;;
53714;SDS011;39608;55.630;37.864;2023-03-26T12:47:54;32.47;;;21.35;;
53714;SDS011;39608;55.630;37.864;2023-03-26T12:53:01;31.30;;;21.88;;
53714;SDS011;39608;55.630;37.864;2023-03-26T13:04:06;30.23;;;21.30;;
53714;SDS011;39608;55.630;37.864;2023-03-26T13:09:25;24.67;;;17.35;;
53714;SDS011;39608;55.630;37.864;2023-03-26T13:15:02;27.40;;;17.67;;
53714;SDS011;39608;55.630;37.864;2023-03-26T13:20:15;27.52;;;16.40;;
53714;SDS011;39608;55.630;37.864;2023-03-26T13:25:29;21.83;;;16.30;;
53714;SDS011;39608;55.630;37.864;2023-03-26T13:30:39;23.25;;;16.40;;
53714;SDS011;39608;55.630;37.864;2023-03-26T13:35:51;25.40;;;16.70;;
53714;SDS011;39608;55.630;37.864;2023-03-26T13:41:02;22.35;;;15.90;;
53714;SDS011;39608;55.630;37.864;2023-03-26T13:46:12;21.80;;;16.00;;
53714;SDS011;39608;55.630;37.864;2023-03-26T13:51:25;22.25;;;16.45;;
53714;SDS011;39608;55.630;37.864;2023-03-26T13:56:36;21.83;;;15.02;;
53714;SDS011;39608;55.630;37.864;2023-03-26T14:01:42;22.60;;;14.77;;
53714;SDS011;39608;55.630;37.864;2023-03-26T14:06:51;19.25;;;14.27;;
53714;SDS011;39608;55.630;37.864;2023-03-26T14:17:17;20.95;;;13.63;;
53714;SDS011;39608;55.630;37.864;2023-03-26T14:22:24;21.02;;;13.88;;
53714;SDS011;39608;55.630;37.864;2023-03-26T14:27:39;17.42;;;11.70;;
53714;SDS011;39608;55.630;37.864;2023-03-26T14:32:55;20.52;;;12.70;;
53714;SDS011;39608;55.630;37.864;2023-03-26T14:43:47;20.55;;;13.13;;
53714;SDS011;39608;55.630;37.864;2023-03-26T14:49:12;21.27;;;14.02;;
53714;SDS011;39608;55.630;37.864;2023-03-26T14:54:29;19.58;;;13.85;;
53714;SDS011;39608;55.630;37.864;2023-03-26T14:59:45;22.17;;;14.20;;
53714;SDS011;39608;55.630;37.864;2023-03-26T15:11:04;19.17;;;12.63;;
53714;SDS011;39608;55.630;37.864;2023-03-26T15:39:03;22.50;;;13.23;;
53714;SDS011;39608;55.630;37.864;2023-03-26T15:44:41;19.35;;;12.55;;
53714;SDS011;39608;55.630;37.864;2023-03-26T15:49:54;17.35;;;11.95;;
53714;SDS011;39608;55.630;37.864;2023-03-26T15:55:17;20.98;;;12.68;;
53714;SDS011;39608;55.630;37.864;2023-03-26T16:00:28;16.30;;;12.20;;
53714;SDS011;39608;55.630;37.864;2023-03-26T16:05:38;16.57;;;12.53;;
53714;SDS011;39608;55.630;37.864;2023-03-26T16:10:49;20.00;;;13.52;;
53714;SDS011;39608;55.630;37.864;2023-03-26T16:15:53;18.13;;;13.63;;
53714;SDS011;39608;55.630;37.864;2023-03-26T16:21:08;15.40;;;11.35;;
53714;SDS011;39608;55.630;37.864;2023-03-26T16:26:34;17.33;;;11.23;;
53714;SDS011;39608;55.630;37.864;2023-03-26T16:31:58;18.08;;;12.10;;
53714;SDS011;39608;55.630;37.864;2023-03-26T16:42:45;19.02;;;12.85;;
53714;SDS011;39608;55.630;37.864;2023-03-26T16:47:54;17.63;;;11.55;;
53714;SDS011;39608;55.630;37.864;2023-03-26T16:53:14;14.32;;;10.95;;
53714;SDS011;39608;55.630;37.864;2023-03-26T16:58:31;20.77;;;12.27;;
53714;SDS011;39608;55.630;37.864;2023-03-26T17:03:43;17.58;;;12.15;;
53714;SDS011;39608;55.630;37.864;2023-03-26T17:08:58;20.27;;;11.40;;
53714;SDS011;39608;55.630;37.864;2023-03-26T17:14:11;19.50;;;12.98;;
53714;SDS011;39608;55.630;37.864;2023-03-26T17:19:27;14.98;;;11.60;;
53714;SDS011;39608;55.630;37.864;2023-03-26T17:24:37;22.88;;;11.68;;
53714;SDS011;39608;55.630;37.864;2023-03-26T17:29:55;17.52;;;10.85;;
53714;SDS011;39608;55.630;37.864;2023-03-26T17:35:06;16.52;;;11.10;;
53714;SDS011;39608;55.630;37.864;2023-03-26T17:45:57;16.40;;;11.55;;
53714;SDS011;39608;55.630;37.864;2023-03-26T17:51:00;16.75;;;11.85;;
53714;SDS011;39608;55.630;37.864;2023-03-26T17:56:11;18.65;;;11.30;;
53714;SDS011;39608;55.630;37.864;2023-03-26T18:01:20;14.25;;;10.63;;
53714;SDS011;39608;55.630;37.864;2023-03-26T18:06:33;16.55;;;11.10;;
53714;SDS011;39608;55.630;37.864;2023-03-26T18:17:19;17.05;;;11.77;;
53714;SDS011;39608;55.630;37.864;2023-03-26T18:22:22;15.15;;;10.50;;
53714;SDS011;39608;55.630;37.864;2023-03-26T18:27:28;13.93;;;10.50;;
53714;SDS011;39608;55.630;37.864;2023-03-26T18:32:41;14.38;;;9.23;;
53714;SDS011;39608;55.630;37.864;2023-03-26T18:37:52;15.48;;;10.07;;
53714;SDS011;39608;55.630;37.864;2023-03-26T18:42:58;16.02;;;9.90;;
53714;SDS011;39608;55.630;37.864;2023-03-26T18:48:03;16.63;;;10.35;;
53714;SDS011;39608;55.630;37.864;2023-03-26T18:53:13;14.70;;;9.10;;
53714;SDS011;39608;55.630;37.864;2023-03-26T18:58:21;13.40;;;10.52;;
53714;SDS011;39608;55.630;37.864;2023-03-26T19:03:26;15.63;;;9.80;;
53714;SDS011;39608;55.630;37.864;2023-03-26T19:08:31;14.53;;;10.10;;
53714;SDS011;39608;55.630;37.864;2023-03-26T19:13:34;16.40;;;10.75;;
53714;SDS011;39608;55.630;37.864;2023-03-26T19:18:39;18.70;;;9.48;;
53714;SDS011;39608;55.630;37.864;2023-03-26T19:23:42;24.30;;;10.45;;
53714;SDS011;39608;55.630;37.864;2023-03-26T19:28:47;23.00;;;9.35;;
53714;SDS011;39608;55.630;37.864;2023-03-26T19:33:55;13.95;;;9.57;;
53714;SDS011;39608;55.630;37.864;2023-03-26T19:39:09;19.95;;;9.80;;
53714;SDS011;39608;55.630;37.864;2023-03-26T19:44:16;13.98;;;9.82;;
53714;SDS011;39608;55.630;37.864;2023-03-26T19:49:26;16.40;;;9.70;;
53714;SDS011;39608;55.630;37.864;2023-03-26T19:54:31;14.25;;;9.63;;
53714;SDS011;39608;55.630;37.864;2023-03-26T19:59:45;14.38;;;10.07;;
53714;SDS011;39608;55.630;37.864;2023-03-26T20:04:50;14.57;;;11.57;;
53714;SDS011;39608;55.630;37.864;2023-03-26T20:09:52;14.13;;;9.65;;
53714;SDS011;39608;55.630;37.864;2023-03-26T20:14:54;17.05;;;10.48;;
53714;SDS011;39608;55.630;37.864;2023-03-26T20:19:59;17.20;;;12.63;;
53714;SDS011;39608;55.630;37.864;2023-03-26T20:25:14;19.35;;;13.57;;
53714;SDS011;39608;55.630;37.864;2023-03-26T20:30:21;25.25;;;15.20;;
53714;SDS011;39608;55.630;37.864;2023-03-26T20:35:25;23.27;;;14.90;;
53714;SDS011;39608;55.630;37.864;2023-03-26T20:40:27;17.98;;;11.60;;
53714;SDS011;39608;55.630;37.864;2023-03-26T20:45:30;14.95;;;9.63;;
53714;SDS011;39608;55.630;37.864;2023-03-26T20:50:33;13.38;;;9.00;;
53714;SDS011;39608;55.630;37.864;2023-03-26T20:55:35;9.93;;;8.05;;
53714;SDS011;39608;55.630;37.864;2023-03-26T21:00:37;10.20;;;7.40;;
53714;SDS011;39608;55.630;37.864;2023-03-26T21:05:41;10.50;;;7.95;;
53714;SDS011;39608;55.630;37.864;2023-03-26T21:10:44;10.15;;;7.95;;
53714;SDS011;39608;55.630;37.864;2023-03-26T21:15:47;12.55;;;8.60;;
53714;SDS011;39608;55.630;37.864;2023-03-26T21:20:52;9.73;;;8.45;;
53714;SDS011;39608;55.630;37.864;2023-03-26T21:26:03;11.50;;;10.25;;
53714;SDS011;39608;55.630;37.864;2023-03-26T21:31:12;11.30;;;9.68;;
53714;SDS011;39608;55.630;37.864;2023-03-26T21:36:19;13.15;;;9.75;;
53714;SDS011;39608;55.630;37.864;2023-03-26T21:41:24;12.90;;;9.98;;
53714;SDS011;39608;55.630;37.864;2023-03-26T21:46:35;16.58;;;12.48;;
53714;SDS011;39608;55.630;37.864;2023-03-26T21:51:39;21.45;;;15.82;;
53714;SDS011;39608;55.630;37.864;2023-03-26T21:56:43;22.80;;;16.25;;
53714;SDS011;39608;55.630;37.864;2023-03-26T22:01:51;23.58;;;17.23;;
53714;SDS011;39608;55.630;37.864;2023-03-26T22:07:03;19.92;;;14.43;;
53714;SDS011;39608;55.630;37.864;2023-03-26T22:12:11;16.67;;;10.30;;
53714;SDS011;39608;55.630;37.864;2023-03-26T22:17:13;12.90;;;8.23;;
53714;SDS011;39608;55.630;37.864;2023-03-26T22:22:17;13.48;;;8.90;;
53714;SDS011;39608;55.630;37.864;2023-03-26T22:27:21;14.63;;;8.55;;
53714;SDS011;39608;55.630;37.864;2023-03-26T22:32:23;11.40;;;8.30;;
53714;SDS011;39608;55.630;37.864;2023-03-26T22:37:26;12.43;;;9.15;;
53714;SDS011;39608;55.630;37.864;2023-03-26T22:42:28;12.27;;;7.72;;
53714;SDS011;39608;55.630;37.864;2023-03-26T22:47:30;11.63;;;7.30;;
53714;SDS011;39608;55.630;37.864;2023-03-26T22:52:36;7.05;;;4.93;;
53714;SDS011;39608;55.630;37.864;2023-03-26T22:57:39;7.07;;;4.78;;
53714;SDS011;39608;55.630;37.864;2023-03-26T23:02:42;4.60;;;4.03;;
53714;SDS011;39608;55.630;37.864;2023-03-26T23:07:46;3.42;;;3.10;;
53714;SDS011;39608;55.630;37.864;2023-03-26T23:12:48;3.28;;;2.80;;
53714;SDS011;39608;55.630;37.864;2023-03-26T23:17:50;3.90;;;2.63;;
53714;SDS011;39608;55.630;37.864;2023-03-26T23:22:54;3.70;;;2.65;;
53714;SDS011;39608;55.630;37.864;2023-03-26T23:27:56;3.75;;;2.53;;
53714;SDS011;39608;55.630;37.864;2023-03-26T23:32:58;3.05;;;2.42;;
53714;SDS011;39608;55.630;37.864;2023-03-26T23:38:02;3.55;;;2.70;;
53714;SDS011;39608;55.630;37.864;2023-03-26T23:43:06;3.50;;;3.20;;
53714;SDS011;39608;55.630;37.864;2023-03-26T23:48:07;4.40;;;3.78;;
53714;SDS011;39608;55.630;37.864;2023-03-26T23:53:11;3.92;;;3.20;;
53714;SDS011;39608;55.630;37.864;2023-03-26T23:58:13;3.30;;;3.00;;
